CheckWX is a tool to help pilots better visualize weather data.  It is not intended as a substitute for an official pre-flight weather briefing.

05:20:46 UTC

CWEU METAR
Eureka Airport
Eureka, Canada
Current

2 hours ago

CWEU 200300Z 07002KT 15SM IC SKC M40/M44 A2976 RMK LAST OBS/ NEXT 200600 UTC SLP083
Observed
Feb-20 @ 03:00 UTC
Wind
  • 070° at 2 KTS
Visibility
24,140 meters
Flight Rules
VFR
Conditions
Ice crystals
Cloud Levels
  • Clear skies
Temperature
-40°C / -40°F
Dewpoint
-44°C / -47°F
Humidity
65%
Altimeter
29.76" Hg
Pressure
1008.3 hPa
Previous

3 hours ago

CWEU 200200Z 07003KT 060V140 15SM IC SKC M41/M45 A2976 RMK SLP082
Observed
Feb-20 @ 02:00 UTC
Wind
  • 070° at 3 KTS
Visibility
24,140 meters
Flight Rules
VFR
Conditions
Ice crystals
Cloud Levels
  • Clear skies
Temperature
-41°C / -42°F
Dewpoint
-45°C / -49°F
Humidity
65%
Altimeter
29.76" Hg
Pressure
1008.2 hPa
Previous

4 hours ago

CWEU 200100Z 12003KT 15SM IC SKC M40/M44 A2976 RMK SLP082
Observed
Feb-20 @ 01:00 UTC
Wind
  • 120° at 3 KTS
Visibility
24,140 meters
Flight Rules
VFR
Conditions
Ice crystals
Cloud Levels
  • Clear skies
Temperature
-40°C / -40°F
Dewpoint
-44°C / -47°F
Humidity
65%
Altimeter
29.76" Hg
Pressure
1008.2 hPa